Sousse, Tunisia
Current Conditions -  °F | °C
As of 10:30 PM on Monday 24 Nov 2014 (Local Time) from DTMB Reporting Station
Few Clouds Few Clouds  
Wind Chill: 68°   Ceiling: Unl
Heat Index: 68°   Visibility: 5mi
Dew Point: 63°   Wind: 5mph
Humidity: 83%   Direction: 170°S
Pressure: 30.15"   Gusts: NA
Location:  35.82°N, 10.63°E
Report Text: DTMB 242130Z 17004KT 8000 FEW023 20/17 Q1021 NOSIG
Loading
Personal Weather Stations






























Interactive Weather Map New forecast layout! Learn more

10-Day Weather Forecast

Advertisements
Track Severe Weather on mobile